Time;durP1;ratioP1;P1;durP2;ratioP2;P2;SDS_P1;SDS_P2;PMS_P1;PMS_P2;Temp;Humidity;BMP_temperature;BMP_pressure;BME280_temperature;BME280_humidity;BME280_pressure;Samples;Min_cycle;Max_cycle;Signal;HPM_P1;HPM_P2
2023/09/11 00:00:46;;;;;;;28.80;14.30;;;;;;;;;;4917062;29;20115;-80
2023/09/11 00:03:13;;;;;;;18.05;8.15;;;;;;;;;;4925401;29;20066;-79
2023/09/11 00:05:39;;;;;;;40.55;14.68;;;;;;;;;;4929026;29;20118;-80
2023/09/11 00:08:05;;;;;;;20.88;11.73;;;;;;;;;;4917969;29;20040;-79
2023/09/11 00:10:32;;;;;;;34.67;15.25;;;;;;;;;;4898573;29;20052;-81
2023/09/11 00:12:59;;;;;;;36.00;14.05;;;;;;;;;;4925773;29;20134;-79
2023/09/11 00:15:25;;;;;;;28.83;12.73;;;;;;;;;;4933239;29;20048;-79
2023/09/11 00:17:51;;;;;;;34.33;14.23;;;;;;;;;;4933521;29;20252;-79
2023/09/11 00:20:17;;;;;;;27.13;12.93;;;;;;;;;;4933900;29;20051;-79
2023/09/11 00:22:43;;;;;;;33.80;14.70;;;;;;;;;;4892779;29;20059;-79
2023/09/11 00:25:09;;;;;;;31.00;14.50;;;;;;;;;;4936093;29;20098;-79
2023/09/11 00:27:37;;;;;;;30.73;14.65;;;;;;;;;;4932725;29;20048;-80
2023/09/11 00:30:03;;;;;;;25.92;14.20;;;;;;;;;;4931791;29;20047;-79
2023/09/11 00:32:30;;;;;;;28.30;14.65;;;;;;;;;;4927627;29;20088;-79
2023/09/11 00:34:56;;;;;;;30.80;15.00;;;;;;;;;;4928527;29;20047;-79
2023/09/11 00:37:22;;;;;;;32.55;15.65;;;;;;;;;;4932341;29;20051;-79
2023/09/11 00:39:48;;;;;;;31.75;14.07;;;;;;;;;;4897829;29;20052;-79
2023/09/11 00:42:14;;;;;;;32.03;14.50;;;;;;;;;;4897948;29;20056;-79
2023/09/11 00:44:40;;;;;;;35.85;15.25;;;;;;;;;;4897388;29;20067;-79
2023/09/11 00:47:06;;;;;;;34.78;15.02;;;;;;;;;;4915063;29;20134;-79
2023/09/11 00:49:32;;;;;;;22.30;11.38;;;;;;;;;;4914967;29;20048;-79
2023/09/11 00:51:59;;;;;;;29.40;14.63;;;;;;;;;;4898550;29;20052;-79
2023/09/11 00:54:26;;;;;;;27.08;14.05;;;;;;;;;;4915049;29;20047;-79
2023/09/11 00:56:52;;;;;;;29.08;13.48;;;;;;;;;;4916793;29;20154;-79
2023/09/11 00:59:18;;;;;;;32.42;14.02;;;;;;;;;;4883538;29;20048;-79
2023/09/11 01:01:45;;;;;;;34.00;14.77;;;;;;;;;;4913739;29;20054;-79
2023/09/11 01:04:11;;;;;;;32.90;14.95;;;;;;;;;;4914765;29;20130;-79
2023/09/11 01:06:37;;;;;;;28.08;13.82;;;;;;;;;;4899041;29;20390;-79
2023/09/11 01:09:04;;;;;;;34.22;14.05;;;;;;;;;;4916711;29;20123;-79
2023/09/11 01:11:30;;;;;;;31.48;14.57;;;;;;;;;;4932464;29;20078;-79
2023/09/11 01:13:57;;;;;;;29.67;14.93;;;;;;;;;;4909624;29;20115;-79
2023/09/11 01:16:35;;;;;;;31.38;14.70;;;;;;;;;;4932368;29;20130;-79
2023/09/11 01:19:06;;;;;;;36.08;14.95;;;;;;;;;;4914170;29;20048;-79
2023/09/11 01:21:43;;;;;;;28.58;14.82;;;;;;;;;;4917670;29;20055;-79
2023/09/11 01:24:19;;;;;;;35.47;15.20;;;;;;;;;;4914408;29;20060;-79
2023/09/11 01:27:02;;;;;;;36.45;15.05;;;;;;;;;;4913994;29;20052;-79
2023/09/11 01:29:31;;;;;;;35.65;16.17;;;;;;;;;;4913573;29;20052;-79
2023/09/11 01:31:59;;;;;;;35.30;15.32;;;;;;;;;;4913381;29;20055;-79
2023/09/11 01:34:25;;;;;;;32.10;14.85;;;;;;;;;;4906244;29;20086;-79
2023/09/11 01:36:51;;;;;;;32.35;15.45;;;;;;;;;;4900308;29;20393;-80
2023/09/11 01:39:17;;;;;;;31.33;15.70;;;;;;;;;;4916200;29;20067;-79
2023/09/11 01:41:45;;;;;;;33.05;14.82;;;;;;;;;;4913036;29;20154;-80
2023/09/11 01:44:21;;;;;;;30.17;14.93;;;;;;;;;;4912948;29;20162;-79
2023/09/11 01:46:48;;;;;;;27.50;15.07;;;;;;;;;;4913010;29;20083;-79
2023/09/11 01:49:15;;;;;;;28.70;14.65;;;;;;;;;;4931045;29;20047;-79
2023/09/11 01:51:41;;;;;;;34.92;15.07;;;;;;;;;;4914036;29;20135;-79
2023/09/11 01:54:08;;;;;;;30.00;15.10;;;;;;;;;;4897364;29;20508;-79
2023/09/11 01:56:34;;;;;;;34.90;15.35;;;;;;;;;;4913952;29;20565;-79
2023/09/11 01:59:00;;;;;;;29.75;14.95;;;;;;;;;;4912389;29;20521;-79
2023/09/11 02:01:26;;;;;;;30.90;14.95;;;;;;;;;;4914065;29;20087;-79
2023/09/11 02:03:52;;;;;;;36.05;15.68;;;;;;;;;;4900243;29;20044;-79
2023/09/11 02:06:18;;;;;;;36.10;17.00;;;;;;;;;;4914220;29;20055;-79
2023/09/11 02:08:44;;;;;;;34.83;15.73;;;;;;;;;;4916556;29;20052;-79
2023/09/11 02:11:10;;;;;;;31.45;16.02;;;;;;;;;;4914762;29;20052;-79
2023/09/11 02:13:37;;;;;;;33.10;15.27;;;;;;;;;;4915457;29;20135;-79
2023/09/11 02:16:03;;;;;;;31.35;15.85;;;;;;;;;;4916610;29;20135;-79
2023/09/11 02:18:29;;;;;;;33.80;15.57;;;;;;;;;;4917345;29;20508;-79
2023/09/11 02:20:55;;;;;;;33.40;16.67;;;;;;;;;;4916792;29;20505;-79
2023/09/11 02:23:22;;;;;;;33.78;16.90;;;;;;;;;;4908884;29;20445;-79
2023/09/11 02:25:48;;;;;;;32.22;16.88;;;;;;;;;;4936044;29;20130;-80
2023/09/11 02:28:14;;;;;;;33.90;17.17;;;;;;;;;;4905502;29;20044;-79
2023/09/11 02:30:41;;;;;;;31.08;16.63;;;;;;;;;;4916753;29;20048;-79
2023/09/11 02:33:07;;;;;;;35.55;16.77;;;;;;;;;;4916575;29;20055;-79
2023/09/11 02:35:33;;;;;;;34.08;17.42;;;;;;;;;;4920308;29;20048;-79
2023/09/11 02:37:59;;;;;;;36.63;18.58;;;;;;;;;;4919616;29;20051;-79
2023/09/11 02:40:25;;;;;;;34.97;16.67;;;;;;;;;;4935356;29;20493;-79
2023/09/11 02:42:51;;;;;;;38.47;17.42;;;;;;;;;;4925301;29;20042;-80
2023/09/11 02:45:17;;;;;;;34.53;17.88;;;;;;;;;;4903586;29;20047;-79
2023/09/11 02:47:43;;;;;;;39.15;17.83;;;;;;;;;;4919879;29;20134;-79
2023/09/11 02:50:09;;;;;;;34.22;17.83;;;;;;;;;;4935344;29;20052;-79
2023/09/11 02:52:35;;;;;;;32.17;17.23;;;;;;;;;;4916936;29;20055;-79
2023/09/11 02:55:02;;;;;;;32.30;17.35;;;;;;;;;;4909743;29;20044;-79
2023/09/11 02:57:28;;;;;;;30.67;16.83;;;;;;;;;;4895920;29;20052;-79
2023/09/11 02:59:55;;;;;;;31.50;17.35;;;;;;;;;;4938941;28;20477;-80
2023/09/11 03:02:24;;;;;;;36.58;18.33;;;;;;;;;;4918313;29;20043;-79
2023/09/11 03:04:51;;;;;;;41.17;18.13;;;;;;;;;;4916595;29;20040;-79
2023/09/11 03:07:20;;;;;;;30.70;17.33;;;;;;;;;;4916075;29;20055;-79
2023/09/11 03:09:46;;;;;;;31.70;16.73;;;;;;;;;;4916228;29;20107;-79
2023/09/11 03:12:12;;;;;;;33.05;16.90;;;;;;;;;;4915491;29;20048;-79
2023/09/11 03:14:40;;;;;;;35.55;18.35;;;;;;;;;;4909196;29;20055;-79
2023/09/11 03:17:06;;;;;;;30.88;17.67;;;;;;;;;;4915868;29;20048;-79
2023/09/11 03:19:32;;;;;;;;;;;;;;;;;;4916374;29;20126;-79
2023/09/11 03:21:58;;;;;;;27.67;17.75;;;;;;;;;;4918929;29;19978;-80
2023/09/11 03:24:24;;;;;;;34.97;18.30;;;;;;;;;;4903676;29;20044;-79
2023/09/11 03:26:50;;;;;;;38.22;17.35;;;;;;;;;;4934268;29;20052;-79
2023/09/11 03:29:17;;;;;;;40.15;20.08;;;;;;;;;;4914795;29;20052;-78
2023/09/11 03:31:43;;;;;;;31.48;18.92;;;;;;;;;;4915716;29;20044;-78
2023/09/11 03:34:09;;;;;;;27.38;14.70;;;;;;;;;;4915601;29;20102;-79
2023/09/11 03:36:35;;;;;;;29.85;16.00;;;;;;;;;;4918287;29;20043;-78
2023/09/11 03:39:02;;;;;;;30.20;18.27;;;;;;;;;;4924327;29;20183;-79
2023/09/11 03:41:29;;;;;;;31.15;18.45;;;;;;;;;;4918588;29;20063;-78
2023/09/11 03:43:55;;;;;;;13.75;8.15;;;;;;;;;;4917935;29;20087;-79
2023/09/11 03:46:21;;;;;;;18.05;10.45;;;;;;;;;;4918126;29;20055;-79
2023/09/11 03:48:47;;;;;;;33.83;19.95;;;;;;;;;;4919059;29;20051;-78
2023/09/11 03:51:13;;;;;;;39.75;19.58;;;;;;;;;;4902517;29;20052;-78
2023/09/11 03:53:42;;;;;;;42.53;20.52;;;;;;;;;;4918877;29;20456;-78
2023/09/11 03:56:12;;;;;;;32.20;19.17;;;;;;;;;;4917636;29;20450;-79
2023/09/11 03:58:38;;;;;;;39.03;20.15;;;;;;;;;;4917191;29;20074;-78
2023/09/11 04:01:04;;;;;;;35.40;19.92;;;;;;;;;;4914602;29;20052;-79
2023/09/11 04:03:30;;;;;;;;;;;;;;;;;;4929187;29;20047;-78
2023/09/11 04:05:56;;;;;;;24.52;15.02;;;;;;;;;;4934576;29;20364;-78
2023/09/11 04:08:22;;;;;;;31.33;15.93;;;;;;;;;;4917889;29;20062;-78
2023/09/11 04:10:48;;;;;;;21.15;11.70;;;;;;;;;;4934106;29;20040;-78
2023/09/11 04:13:14;;;;;;;28.02;13.55;;;;;;;;;;4917394;29;20051;-79
2023/09/11 04:15:41;;;;;;;31.35;17.27;;;;;;;;;;4934105;29;20054;-79
2023/09/11 04:18:07;;;;;;;35.35;19.50;;;;;;;;;;4904772;29;20055;-79
2023/09/11 04:20:33;;;;;;;36.10;19.70;;;;;;;;;;4915153;29;20048;-79
2023/09/11 04:23:03;;;;;;;30.00;15.20;;;;;;;;;;4920165;29;20040;-79
2023/09/11 04:25:29;;;;;;;25.70;13.35;;;;;;;;;;4917718;29;20044;-79
2023/09/11 04:27:55;;;;;;;18.92;12.65;;;;;;;;;;4918080;29;20130;-79
2023/09/11 04:30:21;;;;;;;28.67;17.38;;;;;;;;;;4931911;29;20040;-79
2023/09/11 04:32:47;;;;;;;33.55;19.05;;;;;;;;;;4933873;29;20086;-79
2023/09/11 04:35:14;;;;;;;27.50;15.43;;;;;;;;;;4914540;29;20064;-79
2023/09/11 04:37:40;;;;;;;37.38;19.58;;;;;;;;;;4899265;29;20087;-79
2023/09/11 04:40:06;;;;;;;;;;;;;;;;;;4914166;29;20056;-81
2023/09/11 04:42:32;;;;;;;34.55;20.38;;;;;;;;;;4898793;29;19923;-79
2023/09/11 04:44:59;;;;;;;34.67;16.55;;;;;;;;;;4930930;29;20514;-80
2023/09/11 04:47:26;;;;;;;39.97;18.55;;;;;;;;;;4917638;29;20043;-79
2023/09/11 04:49:52;;;;;;;31.70;17.73;;;;;;;;;;4918028;29;20477;-79
2023/09/11 04:52:18;;;;;;;30.35;15.57;;;;;;;;;;4908001;29;20123;-79
2023/09/11 04:54:44;;;;;;;;;;;;;;;;;;4883935;29;20056;-80
2023/09/11 04:57:10;;;;;;;40.55;18.75;;;;;;;;;;4913797;29;20412;-79
2023/09/11 04:59:36;;;;;;;35.10;17.90;;;;;;;;;;4898015;29;20048;-79
2023/09/11 05:02:02;;;;;;;;;;;;;;;;;;4916007;29;20079;-79
2023/09/11 05:04:28;;;;;;;27.05;16.65;;;;;;;;;;4932777;29;19961;-79
2023/09/11 05:06:54;;;;;;;;;;;;;;;;;;4904061;29;20397;-79
2023/09/11 05:09:20;;;;;;;19.63;10.98;;;;;;;;;;4907178;29;19993;-79
2023/09/11 05:11:46;;;;;;;33.42;16.98;;;;;;;;;;4917671;29;20057;-80
2023/09/11 05:14:12;;;;;;;26.60;15.65;;;;;;;;;;4932225;29;20087;-80
2023/09/11 05:16:38;;;;;;;36.40;19.15;;;;;;;;;;4933287;29;20459;-79
2023/09/11 05:19:04;;;;;;;;;;;;;;;;;;4918341;29;20044;-79
2023/09/11 05:21:32;;;;;;;19.17;8.88;;;;;;;;;;4917305;29;20376;-79
2023/09/11 05:23:58;;;;;;;36.13;13.18;;;;;;;;;;4910949;29;20044;-79
2023/09/11 05:26:24;;;;;;;16.48;9.50;;;;;;;;;;4932545;29;20135;-79
2023/09/11 05:28:50;;;;;;;19.25;11.70;;;;;;;;;;4910360;29;20466;-79
2023/09/11 05:31:16;;;;;;;30.55;16.05;;;;;;;;;;4913617;29;20059;-79
2023/09/11 05:33:42;;;;;;;25.65;13.68;;;;;;;;;;4883073;29;20048;-79
2023/09/11 05:36:09;;;;;;;26.15;14.15;;;;;;;;;;4932179;29;20056;-80
2023/09/11 05:38:35;;;;;;;30.63;16.17;;;;;;;;;;4917116;29;20051;-79
2023/09/11 05:41:01;;;;;;;32.35;16.75;;;;;;;;;;4916488;29;20060;-79
2023/09/11 05:43:28;;;;;;;33.83;15.75;;;;;;;;;;4935534;29;20069;-70
2023/09/11 05:45:54;;;;;;;19.52;10.90;;;;;;;;;;4936705;29;20060;-70
2023/09/11 05:48:20;;;;;;;27.13;14.35;;;;;;;;;;4924282;29;20417;-70
2023/09/11 05:50:46;;;;;;;21.10;12.32;;;;;;;;;;4924331;29;20126;-69
2023/09/11 05:53:12;;;;;;;;;;;;;;;;;;4919460;29;20096;-73
2023/09/11 05:55:39;;;;;;;23.85;12.25;;;;;;;;;;4921546;29;19926;-69
2023/09/11 05:58:05;;;;;;;27.38;14.20;;;;;;;;;;4936500;29;20054;-80
2023/09/11 06:00:31;;;;;;;22.85;12.77;;;;;;;;;;4919597;29;20040;-79
2023/09/11 06:02:57;;;;;;;28.67;16.35;;;;;;;;;;4919939;29;20146;-79
2023/09/11 06:05:25;;;;;;;29.08;13.93;;;;;;;;;;4936013;29;20043;-79
2023/09/11 06:07:51;;;;;;;26.75;12.45;;;;;;;;;;4934798;29;20063;-79
2023/09/11 06:10:17;;;;;;;23.60;11.98;;;;;;;;;;4919926;29;20086;-79
2023/09/11 06:12:43;;;;;;;23.30;12.27;;;;;;;;;;4918647;29;20047;-79
2023/09/11 06:15:09;;;;;;;24.13;14.30;;;;;;;;;;4903897;29;20047;-80
2023/09/11 06:17:36;;;;;;;21.90;11.02;;;;;;;;;;4920113;29;20058;-79
2023/09/11 06:20:08;;;;;;;28.65;12.65;;;;;;;;;;4935863;29;20050;-79
2023/09/11 06:22:34;;;;;;;26.42;14.93;;;;;;;;;;4932567;29;20051;-79
2023/09/11 06:25:00;;;;;;;18.67;11.30;;;;;;;;;;4919938;29;20039;-79
2023/09/11 06:27:26;;;;;;;16.20;10.52;;;;;;;;;;4933692;29;20741;-79
2023/09/11 06:29:52;;;;;;;33.92;16.85;;;;;;;;;;4918520;29;20544;-79
2023/09/11 06:32:19;;;;;;;14.45;9.02;;;;;;;;;;4934698;29;20094;-80
2023/09/11 06:34:45;;;;;;;20.75;12.02;;;;;;;;;;4919599;29;20051;-79
2023/09/11 06:37:11;;;;;;;31.33;15.20;;;;;;;;;;4903723;29;20648;-80
2023/09/11 06:39:37;;;;;;;21.13;11.90;;;;;;;;;;4916353;29;20990;-79
2023/09/11 06:42:03;;;;;;;20.77;12.68;;;;;;;;;;4927665;29;20047;-80
2023/09/11 06:44:30;;;;;;;42.47;17.50;;;;;;;;;;4934267;29;20047;-80
2023/09/11 06:46:56;;;;;;;33.03;18.50;;;;;;;;;;4904399;29;20055;-77
2023/09/11 06:49:23;;;;;;;30.67;16.40;;;;;;;;;;4935242;29;20047;-80
2023/09/11 06:51:49;;;;;;;29.50;14.15;;;;;;;;;;4920759;29;20537;-80
2023/09/11 06:54:15;;;;;;;13.65;9.30;;;;;;;;;;4918789;29;20051;-81
2023/09/11 06:56:41;;;;;;;36.88;18.83;;;;;;;;;;4917095;29;20108;-84
2023/09/11 06:59:07;;;;;;;25.02;14.88;;;;;;;;;;4919059;29;20063;-79
2023/09/11 07:01:38;;;;;;;28.15;13.98;;;;;;;;;;4934890;29;20092;-80
2023/09/11 07:04:10;;;;;;;14.07;9.30;;;;;;;;;;4935440;29;20087;-78
2023/09/11 07:06:37;;;;;;;34.83;18.08;;;;;;;;;;4931918;29;20047;-84
2023/09/11 07:09:04;;;;;;;36.20;18.25;;;;;;;;;;4923820;29;20048;-82
2023/09/11 07:11:30;;;;;;;20.20;12.52;;;;;;;;;;4921477;29;20048;-80
2023/09/11 07:13:56;;;;;;;28.10;16.85;;;;;;;;;;4936528;28;20059;-79
2023/09/11 07:16:22;;;;;;;20.85;12.00;;;;;;;;;;4901738;29;20055;-80
2023/09/11 07:18:49;;;;;;;24.90;13.77;;;;;;;;;;4948539;29;20584;-73
2023/09/11 07:21:15;;;;;;;30.70;16.20;;;;;;;;;;4954963;29;20043;-82
2023/09/11 07:23:41;;;;;;;30.70;16.73;;;;;;;;;;4941359;29;20054;-77
2023/09/11 07:26:07;;;;;;;29.63;13.95;;;;;;;;;;4948520;29;20047;-78
2023/09/11 07:28:34;;;;;;;24.27;13.45;;;;;;;;;;4915700;29;20486;-78
2023/09/11 07:31:00;;;;;;;36.55;14.68;;;;;;;;;;4935725;28;20059;-78
2023/09/11 07:33:26;;;;;;;23.55;11.55;;;;;;;;;;4941249;29;20043;-78
2023/09/11 07:35:52;;;;;;;19.85;11.38;;;;;;;;;;4936756;29;20490;-78
2023/09/11 07:38:18;;;;;;;31.23;15.18;;;;;;;;;;4943150;29;20437;-77
2023/09/11 07:40:44;;;;;;;33.92;17.45;;;;;;;;;;4932640;29;20295;-77
2023/09/11 07:43:11;;;;;;;23.88;12.30;;;;;;;;;;4945547;29;20047;-77
2023/09/11 07:45:37;;;;;;;24.00;12.30;;;;;;;;;;4936766;29;20060;-77
2023/09/11 07:48:03;;;;;;;24.85;13.43;;;;;;;;;;4926468;29;20494;-77
2023/09/11 07:50:29;;;;;;;29.80;12.18;;;;;;;;;;4937520;29;20048;-78
2023/09/11 07:52:55;;;;;;;19.33;10.65;;;;;;;;;;4917845;29;20048;-74
2023/09/11 07:55:21;;;;;;;23.92;13.80;;;;;;;;;;4921847;29;20048;-78
2023/09/11 07:57:47;;;;;;;21.17;13.63;;;;;;;;;;4935173;29;20592;-75
2023/09/11 08:00:14;;;;;;;18.85;10.60;;;;;;;;;;4936051;29;20087;-74
2023/09/11 08:02:40;;;;;;;22.50;11.82;;;;;;;;;;4919118;29;20489;-75
2023/09/11 08:05:06;;;;;;;17.80;10.02;;;;;;;;;;4921687;29;20055;-76
2023/09/11 08:07:32;;;;;;;16.55;9.27;;;;;;;;;;4904445;29;20040;-78
2023/09/11 08:09:59;;;;;;;25.63;12.32;;;;;;;;;;4918701;29;20047;-81
2023/09/11 08:12:25;;;;;;;19.98;10.73;;;;;;;;;;4914496;29;20051;-74
2023/09/11 08:14:51;;;;;;;33.10;16.92;;;;;;;;;;4937641;28;20497;-74
2023/09/11 08:17:17;;;;;;;20.50;11.07;;;;;;;;;;4935196;29;20126;-73
2023/09/11 08:19:43;;;;;;;24.90;12.77;;;;;;;;;;4920826;29;20059;-78
2023/09/11 08:22:09;;;;;;;18.65;9.55;;;;;;;;;;4917265;29;20114;-78
2023/09/11 08:24:35;;;;;;;12.02;7.13;;;;;;;;;;4919521;29;20048;-75
2023/09/11 08:27:02;;;;;;;13.80;7.07;;;;;;;;;;4933686;29;20055;-73
2023/09/11 08:29:28;;;;;;;14.63;8.38;;;;;;;;;;4917430;29;20055;-72
2023/09/11 08:31:54;;;;;;;36.28;16.23;;;;;;;;;;4926334;29;20078;-78
2023/09/11 08:34:21;;;;;;;12.55;6.32;;;;;;;;;;4918076;29;20048;-79
2023/09/11 08:36:47;;;;;;;13.63;8.32;;;;;;;;;;4933121;29;20493;-79
2023/09/11 08:39:13;;;;;;;17.77;9.80;;;;;;;;;;4933716;29;20055;-79
2023/09/11 08:41:41;;;;;;;12.93;6.65;;;;;;;;;;4914148;29;20052;-79
2023/09/11 08:44:07;;;;;;;9.73;6.47;;;;;;;;;;4916304;29;20044;-79
2023/09/11 08:46:34;;;;;;;24.92;12.70;;;;;;;;;;4903874;29;20056;-80
2023/09/11 08:49:02;;;;;;;13.70;7.43;;;;;;;;;;4932132;29;20048;-75
2023/09/11 08:51:38;;;;;;;28.27;12.02;;;;;;;;;;4934307;29;20059;-76
2023/09/11 08:54:04;;;;;;;19.57;10.10;;;;;;;;;;4917500;29;20101;-77
2023/09/11 08:56:31;;;;;;;14.75;9.32;;;;;;;;;;4932870;29;20167;-76
2023/09/11 08:58:58;;;;;;;17.63;10.48;;;;;;;;;;4932470;29;20048;-77
2023/09/11 09:01:24;;;;;;;13.98;8.45;;;;;;;;;;4917405;29;20122;-79
2023/09/11 09:03:51;;;;;;;17.88;9.80;;;;;;;;;;4932641;29;20048;-80
2023/09/11 09:06:18;;;;;;;20.55;10.23;;;;;;;;;;4923328;29;20567;-79
2023/09/11 09:08:44;;;;;;;27.05;12.48;;;;;;;;;;4908503;29;20054;-80
2023/09/11 09:11:11;;;;;;;26.50;13.10;;;;;;;;;;4933202;29;20054;-79
2023/09/11 09:13:37;;;;;;;27.80;13.13;;;;;;;;;;4932373;29;20126;-79
2023/09/11 09:16:03;;;;;;;25.48;12.07;;;;;;;;;;4932467;29;20168;-84
2023/09/11 09:18:29;;;;;;;19.25;12.00;;;;;;;;;;4921858;29;20044;-87
2023/09/11 09:20:56;;;;;;;22.63;10.40;;;;;;;;;;4921032;29;20058;-82
2023/09/11 09:23:31;;;;;;;24.23;11.50;;;;;;;;;;4936937;29;20466;-82
2023/09/11 09:26:05;;;;;;;20.35;9.93;;;;;;;;;;4920435;29;20051;-83
2023/09/11 09:28:32;;;;;;;21.90;8.35;;;;;;;;;;4935638;29;20055;-73
2023/09/11 09:30:58;;;;;;;15.15;7.13;;;;;;;;;;4935246;29;20192;-73
2023/09/11 09:33:25;;;;;;;17.63;7.50;;;;;;;;;;4925786;29;20055;-78
2023/09/11 09:35:51;;;;;;;27.05;8.00;;;;;;;;;;4932926;29;20047;-83
2023/09/11 09:38:20;;;;;;;22.33;8.10;;;;;;;;;;4936947;29;20476;-83
2023/09/11 09:40:47;;;;;;;21.92;7.47;;;;;;;;;;4920396;29;20063;-83
2023/09/11 09:43:17;;;;;;;20.23;7.43;;;;;;;;;;4936100;29;20486;-83
2023/09/11 09:45:43;;;;;;;21.42;8.25;;;;;;;;;;4936302;29;20079;-83
2023/09/11 09:48:12;;;;;;;24.50;8.18;;;;;;;;;;4926896;29;20565;-84
2023/09/11 09:50:57;;;;;;;17.17;7.68;;;;;;;;;;4901865;29;20052;-83
2023/09/11 09:53:28;;;;;;;18.15;7.85;;;;;;;;;;4918806;29;20401;-85
2023/09/11 09:55:55;;;;;;;21.33;8.43;;;;;;;;;;4935812;29;20063;-84
2023/09/11 09:58:27;;;;;;;23.33;9.07;;;;;;;;;;4912434;29;20157;-86
2023/09/11 10:01:00;;;;;;;14.25;7.57;;;;;;;;;;4935469;29;20061;-86
2023/09/11 10:03:26;;;;;;;28.00;8.45;;;;;;;;;;4931383;29;20040;-86
2023/09/11 10:05:52;;;;;;;17.27;7.45;;;;;;;;;;4917149;29;20104;-85
2023/09/11 10:08:18;;;;;;;15.10;7.03;;;;;;;;;;4901708;29;20134;-85
2023/09/11 10:10:44;;;;;;;18.75;8.68;;;;;;;;;;4901159;29;20056;-85
2023/09/11 10:13:15;;;;;;;21.33;8.60;;;;;;;;;;4901166;29;20044;-88
2023/09/11 10:15:42;;;;;;;19.52;8.13;;;;;;;;;;4901825;29;20090;-84
2023/09/11 10:18:10;;;;;;;19.35;8.65;;;;;;;;;;4910350;29;20084;-88
2023/09/11 10:20:36;;;;;;;18.35;8.30;;;;;;;;;;4922467;29;20052;-89
2023/09/11 10:23:06;;;;;;;19.80;8.35;;;;;;;;;;4917583;29;20051;-89
2023/09/11 10:25:44;;;;;;;24.85;8.80;;;;;;;;;;4918581;29;20062;-89
2023/09/11 10:28:14;;;;;;;27.13;9.02;;;;;;;;;;4899825;29;20055;-87
2023/09/11 10:30:51;;;;;;;18.45;9.05;;;;;;;;;;4913362;29;20131;-89
2023/09/11 10:33:23;;;;;;;23.95;10.20;;;;;;;;;;4921575;29;20190;-88
2023/09/11 10:35:56;;;;;;;26.13;11.68;;;;;;;;;;4936636;29;20051;-90
2023/09/11 10:38:22;;;;;;;19.55;10.20;;;;;;;;;;4919899;29;20051;-88
2023/09/11 10:40:51;;;;;;;25.80;11.27;;;;;;;;;;4921609;29;20095;-71
2023/09/11 10:43:17;;;;;;;23.48;11.13;;;;;;;;;;4932988;29;20082;-73
2023/09/11 10:45:43;;;;;;;26.65;11.90;;;;;;;;;;4935474;29;20406;-77
2023/09/11 10:48:28;;;;;;;22.13;12.02;;;;;;;;;;4935866;29;20062;-74
2023/09/11 10:50:55;;;;;;;20.13;11.35;;;;;;;;;;4935108;29;20048;-75
2023/09/11 10:53:25;;;;;;;26.75;12.02;;;;;;;;;;4917036;29;20079;-80
2023/09/11 10:55:51;;;;;;;22.25;11.98;;;;;;;;;;4926997;29;20075;-81
2023/09/11 10:58:17;;;;;;;19.52;10.82;;;;;;;;;;4902799;29;20142;-81
2023/09/11 11:00:43;;;;;;;17.33;9.82;;;;;;;;;;4935361;29;20051;-81
2023/09/11 11:03:14;;;;;;;25.45;10.43;;;;;;;;;;4919084;29;20055;-81
2023/09/11 11:05:40;;;;;;;20.08;9.57;;;;;;;;;;4929966;29;20103;-78
2023/09/11 11:08:08;;;;;;;20.10;10.23;;;;;;;;;;4915973;29;20048;-79
2023/09/11 11:10:34;;;;;;;17.83;9.88;;;;;;;;;;4916408;29;20052;-78
2023/09/11 11:13:07;;;;;;;19.88;9.40;;;;;;;;;;4915634;29;20270;-79
2023/09/11 11:15:34;;;;;;;15.55;7.78;;;;;;;;;;4916558;29;20055;-80
2023/09/11 11:18:06;;;;;;;15.55;8.43;;;;;;;;;;4928360;29;20135;-92
2023/09/11 11:20:33;;;;;;;16.88;8.30;;;;;;;;;;4928132;29;20059;-89
2023/09/11 11:23:06;;;;;;;20.25;8.95;;;;;;;;;;4935873;29;20489;-89
2023/09/11 11:25:32;;;;;;;18.00;9.82;;;;;;;;;;4935603;29;20046;-89
2023/09/11 11:28:02;;;;;;;16.77;8.60;;;;;;;;;;4919090;29;20046;-90
2023/09/11 11:30:30;;;;;;;17.90;8.80;;;;;;;;;;4935155;29;20055;-88
2023/09/11 11:32:56;;;;;;;16.73;8.90;;;;;;;;;;4918999;29;20054;-90
2023/09/11 11:35:22;;;;;;;14.05;8.98;;;;;;;;;;4918599;29;20052;-90
2023/09/11 11:37:49;;;;;;;12.90;8.65;;;;;;;;;;4904709;29;20086;-90
2023/09/11 11:40:16;;;;;;;16.27;8.68;;;;;;;;;;4919145;29;20055;-89
2023/09/11 11:42:42;;;;;;;18.65;9.73;;;;;;;;;;4907253;29;20043;-90
2023/09/11 11:45:09;;;;;;;19.67;9.25;;;;;;;;;;4926358;29;20044;-89
2023/09/11 11:47:36;;;;;;;15.18;9.02;;;;;;;;;;4903301;29;20086;-88
2023/09/11 11:50:09;;;;;;;15.00;8.98;;;;;;;;;;4926517;29;20079;-87
2023/09/11 11:52:35;;;;;;;19.63;10.18;;;;;;;;;;4919678;29;20082;-89
2023/09/11 11:55:02;;;;;;;19.63;9.50;;;;;;;;;;4918828;29;20078;-89
2023/09/11 11:57:29;;;;;;;19.35;9.63;;;;;;;;;;4919232;29;20063;-86
2023/09/11 11:59:55;;;;;;;19.05;9.68;;;;;;;;;;4933308;29;20047;-86
2023/09/11 12:02:22;;;;;;;26.73;9.35;;;;;;;;;;4905281;29;20063;-85
2023/09/11 12:04:53;;;;;;;21.05;10.35;;;;;;;;;;4905089;29;20051;-88
2023/09/11 12:07:20;;;;;;;16.13;9.02;;;;;;;;;;4930866;29;20052;-86
2023/09/11 12:09:46;;;;;;;14.27;8.93;;;;;;;;;;4930021;29;20051;-84
2023/09/11 12:12:13;;;;;;;22.40;10.07;;;;;;;;;;4921235;29;20382;-91
2023/09/11 12:14:39;;;;;;;16.38;8.60;;;;;;;;;;4917545;29;20052;-86
2023/09/11 12:17:09;;;;;;;20.85;9.80;;;;;;;;;;4933786;29;20044;-86
2023/09/11 12:19:35;;;;;;;16.52;9.88;;;;;;;;;;4918616;29;20103;-86
2023/09/11 12:22:01;;;;;;;14.77;9.65;;;;;;;;;;4918591;29;20083;-86
2023/09/11 12:24:27;;;;;;;17.55;10.02;;;;;;;;;;4903191;29;20048;-86
2023/09/11 12:26:53;;;;;;;17.13;10.20;;;;;;;;;;4903197;29;20056;-86
2023/09/11 12:29:19;;;;;;;20.88;10.10;;;;;;;;;;4917996;29;20051;-87
2023/09/11 12:31:48;;;;;;;18.02;7.95;;;;;;;;;;4903117;29;20126;-86
2023/09/11 12:34:14;;;;;;;14.82;7.70;;;;;;;;;;4903254;29;20046;-86
2023/09/11 12:36:42;;;;;;;14.35;7.43;;;;;;;;;;4934610;29;20052;-86
2023/09/11 12:39:08;;;;;;;10.63;5.95;;;;;;;;;;4908667;29;20545;-88
2023/09/11 12:41:34;;;;;;;14.93;6.57;;;;;;;;;;4928436;29;20063;-87
2023/09/11 12:44:02;;;;;;;15.10;6.72;;;;;;;;;;4917922;29;20083;-87
2023/09/11 12:46:28;;;;;;;12.52;5.90;;;;;;;;;;4921435;29;20052;-87
2023/09/11 12:48:54;;;;;;;11.70;5.68;;;;;;;;;;4934679;29;20051;-86
2023/09/11 12:51:20;;;;;;;12.23;6.28;;;;;;;;;;4930094;29;20485;-87
2023/09/11 12:53:47;;;;;;;11.43;5.95;;;;;;;;;;4934441;29;20079;-86
2023/09/11 12:56:14;;;;;;;11.50;6.20;;;;;;;;;;4930675;29;20091;-86
2023/09/11 12:58:40;;;;;;;14.80;6.28;;;;;;;;;;4917505;29;20561;-86
2023/09/11 13:01:06;;;;;;;15.45;6.28;;;;;;;;;;4928928;29;20051;-87
2023/09/11 13:03:33;;;;;;;12.63;5.90;;;;;;;;;;4933971;29;20044;-87
2023/09/11 13:05:59;;;;;;;11.32;5.32;;;;;;;;;;4934423;29;20047;-86
2023/09/11 13:08:27;;;;;;;13.45;5.22;;;;;;;;;;4918038;29;20060;-86
2023/09/11 13:10:53;;;;;;;12.40;5.07;;;;;;;;;;4934234;29;20050;-86
2023/09/11 13:13:19;;;;;;;10.55;4.85;;;;;;;;;;4902274;29;20051;-87
2023/09/11 13:15:45;;;;;;;9.80;4.70;;;;;;;;;;4902542;29;20490;-87
2023/09/11 13:18:11;;;;;;;11.38;5.10;;;;;;;;;;4917982;29;20532;-87
2023/09/11 13:20:40;;;;;;;15.35;4.82;;;;;;;;;;4903292;29;20086;-86
2023/09/11 13:23:06;;;;;;;11.85;5.22;;;;;;;;;;4902261;29;20114;-87
2023/09/11 13:25:32;;;;;;;13.00;5.40;;;;;;;;;;4902715;29;20051;-88
2023/09/11 13:27:59;;;;;;;13.38;4.68;;;;;;;;;;4915086;29;20048;-87
2023/09/11 13:30:28;;;;;;;8.90;4.47;;;;;;;;;;4929654;29;20154;-87
2023/09/11 13:32:54;;;;;;;10.57;5.03;;;;;;;;;;4899387;29;20184;-87
2023/09/11 13:35:20;;;;;;;9.40;4.53;;;;;;;;;;4932431;29;20048;-87
2023/09/11 13:37:46;;;;;;;10.10;5.10;;;;;;;;;;4918049;29;20052;-87
2023/09/11 13:40:12;;;;;;;9.45;4.50;;;;;;;;;;4933189;29;20078;-87
2023/09/11 13:42:38;;;;;;;12.07;5.05;;;;;;;;;;4902599;29;20143;-87
2023/09/11 13:45:06;;;;;;;9.73;5.07;;;;;;;;;;4901792;29;20561;-88
2023/09/11 13:47:32;;;;;;;10.30;5.55;;;;;;;;;;4899794;29;20088;-86
2023/09/11 13:49:58;;;;;;;12.85;5.60;;;;;;;;;;4898934;29;20056;-86
2023/09/11 13:52:24;;;;;;;13.40;5.28;;;;;;;;;;4898943;29;20143;-86
2023/09/11 13:54:50;;;;;;;11.35;5.50;;;;;;;;;;4932863;29;20489;-87
2023/09/11 13:57:16;;;;;;;17.15;5.38;;;;;;;;;;4917741;29;20375;-87
2023/09/11 13:59:42;;;;;;;10.98;5.70;;;;;;;;;;4917457;29;20055;-87
2023/09/11 14:02:08;;;;;;;12.65;5.63;;;;;;;;;;4902218;29;20457;-88
2023/09/11 14:04:35;;;;;;;12.00;4.20;;;;;;;;;;4920868;29;20048;-87
2023/09/11 14:07:01;;;;;;;7.07;4.00;;;;;;;;;;4902512;29;20083;-88
2023/09/11 14:09:27;;;;;;;10.63;4.13;;;;;;;;;;4902296;29;20052;-87
2023/09/11 14:11:54;;;;;;;7.43;3.58;;;;;;;;;;4902847;29;20059;-87
2023/09/11 14:14:20;;;;;;;9.88;3.63;;;;;;;;;;4917214;29;20048;-88
2023/09/11 14:16:46;;;;;;;9.15;3.63;;;;;;;;;;4919526;29;20050;-85
2023/09/11 14:19:12;;;;;;;7.43;3.03;;;;;;;;;;4904684;29;20058;-78
2023/09/11 14:21:38;;;;;;;9.13;2.80;;;;;;;;;;4924718;29;20048;-89
2023/09/11 14:24:04;;;;;;;8.88;2.60;;;;;;;;;;4910238;29;20541;-82